createdAt,value
2019-05-20T00:01:31.758Z,83.58
2019-05-20T00:04:22.139Z,83.84
2019-05-20T00:07:04.730Z,83.56
2019-05-20T00:09:55.118Z,83.32
2019-05-20T00:12:38.468Z,83.79
2019-05-20T00:15:28.851Z,84.52
2019-05-20T00:18:12.039Z,85.13
2019-05-20T00:21:02.345Z,85.43
2019-05-20T00:23:45.830Z,85.05
2019-05-20T00:26:36.146Z,85.29
2019-05-20T00:29:19.479Z,85.47
2019-05-20T00:32:09.786Z,85.08
2019-05-20T00:35:13.322Z,85.08
2019-05-20T00:38:03.686Z,85.27
2019-05-20T00:40:46.915Z,85.73
2019-05-20T00:47:05.302Z,86.93
2019-05-20T00:49:55.661Z,86.82
2019-05-20T00:52:46.006Z,86.70
2019-05-20T00:55:29.729Z,87.04
2019-05-20T01:01:21.904Z,87.00
2019-05-20T01:04:12.265Z,86.89
2019-05-20T01:06:55.838Z,86.83
2019-05-20T01:09:46.221Z,86.45
2019-05-20T01:12:29.340Z,86.29
2019-05-20T01:15:19.928Z,86.26
2019-05-20T01:18:03.379Z,86.12
2019-05-20T01:23:56.110Z,86.34
2019-05-20T01:26:46.506Z,86.30
2019-05-20T01:29:29.650Z,86.53
2019-05-20T01:32:20.048Z,86.19
2019-05-20T01:35:03.352Z,86.41
2019-05-20T01:37:53.744Z,86.83
2019-05-20T01:40:36.540Z,87.27
2019-05-20T01:43:26.965Z,87.76
2019-05-20T01:46:10.430Z,88.22
2019-05-20T01:49:00.849Z,88.67
2019-05-20T01:51:43.473Z,89.04
2019-05-20T01:54:33.902Z,89.31
2019-05-20T01:57:17.190Z,89.69
2019-05-20T02:00:28.094Z,89.97
2019-05-20T02:03:31.075Z,90.30
2019-05-20T02:06:22.795Z,90.72
2019-05-20T02:09:13.187Z,91.04
2019-05-20T02:11:56.502Z,91.23
2019-05-20T02:18:07.728Z,91.70
2019-05-20T02:20:51.118Z,92.03
2019-05-20T02:23:41.532Z,92.26
2019-05-20T02:26:24.350Z,92.59
2019-05-20T02:29:14.750Z,92.72
2019-05-20T02:31:57.538Z,92.83
2019-05-20T02:34:48.166Z,93.25
2019-05-20T02:37:30.763Z,93.28
2019-05-20T02:40:21.187Z,93.51
2019-05-20T02:43:03.756Z,93.78
2019-05-20T02:45:54.150Z,94.32
2019-05-20T02:48:38.518Z,94.68
2019-05-20T02:51:47.797Z,95.19
2019-05-20T02:54:31.403Z,95.65
2019-05-20T02:57:21.822Z,96.18
2019-05-20T03:00:05.221Z,96.48
2019-05-20T03:02:55.617Z,96.75
2019-05-20T03:05:39.070Z,97.10
2019-05-20T03:08:29.487Z,97.60
2019-05-20T03:11:13.039Z,97.80
2019-05-20T03:14:03.559Z,97.93
2019-05-20T03:16:47.042Z,98.08
2019-05-20T03:19:37.491Z,98.13
2019-05-20T03:22:20.805Z,98.13
2019-05-20T03:25:11.283Z,98.25
2019-05-20T03:27:54.522Z,98.49
2019-05-20T03:30:45.307Z,98.69
2019-05-20T03:33:28.226Z,98.83
2019-05-20T03:36:18.737Z,98.95
2019-05-20T03:39:01.801Z,99.31
2019-05-20T03:41:52.185Z,99.58
2019-05-20T03:44:35.513Z,100.00
2019-05-20T03:47:25.881Z,100.00
2019-05-20T03:50:09.204Z,100.00
2019-05-20T03:53:13.483Z,100.00
2019-05-20T03:56:06.450Z,100.00
2019-05-20T03:58:56.905Z,100.00
2019-05-20T04:01:40.753Z,100.00
2019-05-20T04:04:31.181Z,100.00
2019-05-20T04:07:14.406Z,100.00
2019-05-20T04:10:05.151Z,100.00
2019-05-20T04:12:48.017Z,100.00
2019-05-20T04:15:38.413Z,100.00
2019-05-20T04:18:21.458Z,100.00
2019-05-20T04:21:04.269Z,100.00
2019-05-20T04:23:54.716Z,100.00
2019-05-20T04:26:37.551Z,100.00
2019-05-20T04:29:28.034Z,100.00
2019-05-20T04:32:11.630Z,100.00
2019-05-20T04:35:19.829Z,100.00
2019-05-20T04:38:06.328Z,100.00
2019-05-20T04:40:56.710Z,100.00
2019-05-20T04:43:39.518Z,100.00
2019-05-20T04:46:29.941Z,100.00
2019-05-20T04:49:14.721Z,100.00
2019-05-20T04:52:05.156Z,100.00
2019-05-20T04:54:50.229Z,100.00
2019-05-20T04:57:40.768Z,100.00
2019-05-20T05:04:13.337Z,100.00
2019-05-20T05:06:56.853Z,100.00
2019-05-20T05:09:47.215Z,100.00
2019-05-20T05:12:34.135Z,100.00
2019-05-20T05:31:51.808Z,100.00
2019-05-20T05:44:57.435Z,100.00
2019-05-20T05:47:40.112Z,100.00
2019-05-20T05:53:48.778Z,100.00
2019-05-20T05:56:58.432Z,100.00
2019-05-20T05:59:41.310Z,100.00
2019-05-20T06:02:24.919Z,100.00
2019-05-20T06:05:15.411Z,100.00
2019-05-20T06:07:58.110Z,100.00
2019-05-20T06:10:48.491Z,100.00
2019-05-20T06:13:31.181Z,100.00
2019-05-20T06:16:36.079Z,100.00
2019-05-20T06:19:26.179Z,100.00
2019-05-20T06:22:16.639Z,100.00
2019-05-20T06:24:59.807Z,100.00
2019-05-20T06:27:50.187Z,100.00
2019-05-20T06:30:37.830Z,100.00
2019-05-20T06:33:31.704Z,100.00
2019-05-20T06:36:26.398Z,100.00
2019-05-20T06:40:02.913Z,100.00
2019-05-20T06:42:52.661Z,99.85
2019-05-20T06:45:43.065Z,98.95
2019-05-20T06:48:26.311Z,98.50
2019-05-20T06:51:16.696Z,98.13
2019-05-20T06:53:59.307Z,97.45
2019-05-20T06:56:49.799Z,97.49
2019-05-20T06:59:32.686Z,97.16
2019-05-20T07:02:15.565Z,96.17
2019-05-20T07:08:34.776Z,95.03
2019-05-20T07:11:25.198Z,94.80
2019-05-20T07:14:08.571Z,94.10
2019-05-20T07:16:59.013Z,92.60
2019-05-20T07:19:45.096Z,92.41
2019-05-20T07:23:02.737Z,91.62
2019-05-20T07:26:00.035Z,91.25
2019-05-20T07:28:50.480Z,91.44
2019-05-20T07:31:34.539Z,90.32
2019-05-20T07:34:24.962Z,90.02
2019-05-20T07:37:08.392Z,89.78
2019-05-20T07:39:58.830Z,89.59
2019-05-20T07:42:41.513Z,89.11
2019-05-20T07:45:57.032Z,89.22
2019-05-20T07:48:40.521Z,89.45
2019-05-20T07:55:00.476Z,89.29
2019-05-20T07:58:14.764Z,89.21
2019-05-20T08:00:57.463Z,88.62
2019-05-20T08:03:47.938Z,88.42
2019-05-20T08:06:31.190Z,87.68
2019-05-20T08:09:21.633Z,86.98
2019-05-20T08:12:04.843Z,86.31
2019-05-20T08:14:55.249Z,85.49
2019-05-20T08:17:38.129Z,84.57
2019-05-20T08:20:28.536Z,83.85
2019-05-20T08:23:11.661Z,82.48
2019-05-20T08:26:02.059Z,82.58
2019-05-20T08:28:44.716Z,82.85
2019-05-20T08:31:35.101Z,82.17
2019-05-20T08:34:18.224Z,81.67
2019-05-20T08:37:08.624Z,81.34
2019-05-20T08:39:51.321Z,80.47
2019-05-20T08:42:41.727Z,79.04
2019-05-20T08:45:25.921Z,78.55
2019-05-20T08:47:57.247Z,78.08
2019-05-20T08:50:47.606Z,76.57
2019-05-20T08:53:30.713Z,76.16
2019-05-20T08:56:21.114Z,75.88
2019-05-20T08:59:03.729Z,75.69
2019-05-20T09:01:46.606Z,76.05
2019-05-20T09:04:36.997Z,75.92
2019-05-20T09:07:19.613Z,76.46
2019-05-20T09:10:10.192Z,76.90
2019-05-20T09:12:53.098Z,77.67
2019-05-20T09:15:45.423Z,77.12
2019-05-20T09:18:48.393Z,77.16
2019-05-20T09:21:38.790Z,77.31
2019-05-20T09:24:23.638Z,77.20
2019-05-20T09:27:13.995Z,77.11
2019-05-20T09:29:57.528Z,77.70
2019-05-20T09:32:48.038Z,77.88
2019-05-20T09:35:31.170Z,77.96
2019-05-20T09:38:21.657Z,78.81
2019-05-20T09:41:04.904Z,79.03
2019-05-20T09:43:55.327Z,78.03
2019-05-20T09:46:38.065Z,78.38
2019-05-20T09:49:28.491Z,78.17
2019-05-20T09:52:11.998Z,78.69
2019-05-20T09:55:02.501Z,78.65
2019-05-20T09:57:45.331Z,78.89
2019-05-20T10:00:35.825Z,78.90
2019-05-20T10:03:18.400Z,78.41
2019-05-20T10:06:09.045Z,77.72
2019-05-20T10:09:13.036Z,77.56
2019-05-20T10:12:03.444Z,77.13
2019-05-20T10:14:46.168Z,77.13
2019-05-20T10:17:36.568Z,77.87
2019-05-20T10:20:19.761Z,78.38
2019-05-20T10:23:10.147Z,78.02
2019-05-20T10:25:52.811Z,76.70
2019-05-20T10:28:47.175Z,75.61
2019-05-20T10:31:47.298Z,74.43
2019-05-20T10:34:37.918Z,74.31
2019-05-20T10:37:20.602Z,73.83
2019-05-20T10:43:40.282Z,73.95
2019-05-20T10:46:30.649Z,72.99
2019-05-20T10:49:13.150Z,72.31
2019-05-20T10:52:05.364Z,71.99
2019-05-20T10:55:08.803Z,71.82
2019-05-20T10:57:59.196Z,72.13
2019-05-20T11:01:01.795Z,72.30
2019-05-20T11:03:54.601Z,72.28
2019-05-20T11:06:44.991Z,72.66
2019-05-20T11:09:28.302Z,72.56
2019-05-20T11:12:18.671Z,72.00
2019-05-20T11:15:02.565Z,71.80
2019-05-20T11:17:53.167Z,72.04
2019-05-20T11:20:35.908Z,71.94
2019-05-20T11:23:26.263Z,71.72
2019-05-20T11:26:11.184Z,71.54
2019-05-20T11:29:01.598Z,71.86
2019-05-20T11:32:10.492Z,70.99
2019-05-20T11:34:59.002Z,71.36
2019-05-20T11:37:43.063Z,71.47
2019-05-20T11:40:53.408Z,70.95
2019-05-20T11:43:46.424Z,71.34
2019-05-20T11:46:39.139Z,71.77
2019-05-20T11:49:22.457Z,71.22
2019-05-20T11:52:12.805Z,71.34
2019-05-20T11:54:56.204Z,71.65
2019-05-20T11:57:46.650Z,72.22
2019-05-20T12:00:30.155Z,72.33
2019-05-20T12:03:20.543Z,72.36
2019-05-20T12:06:04.318Z,72.38
2019-05-20T12:08:55.008Z,72.33
2019-05-20T12:11:38.175Z,72.84
2019-05-20T12:14:28.612Z,72.84
2019-05-20T12:17:12.181Z,73.13
2019-05-20T12:20:03.826Z,73.45
2019-05-20T12:23:07.357Z,73.31
2019-05-20T12:25:57.768Z,73.39
2019-05-20T12:28:40.763Z,73.35
2019-05-20T12:31:31.192Z,72.98
2019-05-20T12:34:14.151Z,72.95
2019-05-20T12:37:04.656Z,73.03
2019-05-20T12:40:06.421Z,72.97
2019-05-20T12:43:00.657Z,72.83
2019-05-20T12:45:51.067Z,72.57
2019-05-20T12:48:34.337Z,72.87
2019-05-20T12:51:24.790Z,72.36
2019-05-20T12:54:07.667Z,71.88
2019-05-20T12:56:58.141Z,72.04
2019-05-20T12:59:41.572Z,72.04
2019-05-20T13:02:31.960Z,72.30
2019-05-20T13:05:15.618Z,72.11
2019-05-20T13:08:06.048Z,72.38
2019-05-20T13:10:49.353Z,72.19
2019-05-20T13:13:39.703Z,72.42
2019-05-20T13:16:22.916Z,72.64
2019-05-20T13:19:13.347Z,72.78
2019-05-20T13:22:03.868Z,72.73
2019-05-20T13:24:46.838Z,72.48
2019-05-20T13:27:37.196Z,72.76
2019-05-20T13:30:21.001Z,72.99
2019-05-20T13:33:11.367Z,73.00
2019-05-20T13:36:01.759Z,73.73
2019-05-20T13:38:44.704Z,73.32
2019-05-20T13:41:35.117Z,73.70
2019-05-20T13:44:17.673Z,73.46
2019-05-20T13:47:08.058Z,73.35
2019-05-20T13:49:50.838Z,72.89
2019-05-20T13:52:41.241Z,73.14
2019-05-20T13:55:24.031Z,73.52
2019-05-20T13:58:14.386Z,73.63
2019-05-20T14:00:57.184Z,74.01
2019-05-20T14:03:47.574Z,74.58
2019-05-20T14:06:30.947Z,74.58
2019-05-20T14:09:21.340Z,74.65
2019-05-20T14:12:24.630Z,74.32
2019-05-20T14:15:15.234Z,74.56
2019-05-20T14:17:58.535Z,74.00
2019-05-20T14:20:48.859Z,73.39
2019-05-20T14:23:31.905Z,72.94
2019-05-20T14:29:28.963Z,71.81
2019-05-20T14:32:19.340Z,71.69
2019-05-20T14:35:02.878Z,71.62
2019-05-20T14:37:53.272Z,71.87
2019-05-20T14:40:35.882Z,71.81
2019-05-20T14:43:26.362Z,71.60
2019-05-20T14:46:09.948Z,71.99
2019-05-20T14:49:02.530Z,72.01
2019-05-20T14:52:05.323Z,72.41
2019-05-20T14:54:55.878Z,72.33
2019-05-20T14:57:38.571Z,72.81
2019-05-20T15:00:28.948Z,72.82
2019-05-20T15:03:12.245Z,72.97
2019-05-20T15:06:02.665Z,72.64
2019-05-20T15:08:45.412Z,72.82
2019-05-20T15:11:38.569Z,72.69
2019-05-20T15:14:42.513Z,72.78
2019-05-20T15:17:32.429Z,72.89
2019-05-20T15:20:15.283Z,72.97
2019-05-20T15:23:05.644Z,73.27
2019-05-20T15:25:48.736Z,73.34
2019-05-20T15:28:39.158Z,73.55
2019-05-20T15:31:22.467Z,73.55
2019-05-20T15:33:53.845Z,73.89
2019-05-20T15:36:44.351Z,74.23
2019-05-20T15:39:34.761Z,74.39
2019-05-20T15:42:17.325Z,74.00
2019-05-20T15:48:37.410Z,74.32
2019-05-20T15:51:27.814Z,74.47
2019-05-20T15:54:18.235Z,74.38
2019-05-20T15:57:01.337Z,73.86
2019-05-20T15:59:51.727Z,73.62
2019-05-20T16:02:34.574Z,73.62
2019-05-20T16:05:25.024Z,74.18
2019-05-20T16:08:08.497Z,74.52
2019-05-20T16:10:58.910Z,74.30
2019-05-20T16:13:41.423Z,74.08
2019-05-20T16:16:31.829Z,74.06
2019-05-20T16:19:14.428Z,74.35
2019-05-20T16:22:04.840Z,74.65
2019-05-20T16:24:47.839Z,75.06
2019-05-20T16:27:38.225Z,75.53
2019-05-20T16:30:22.727Z,75.73
2019-05-20T16:33:05.606Z,75.75
2019-05-20T16:35:56.830Z,76.04
2019-05-20T16:38:39.992Z,76.47
2019-05-20T16:41:31.926Z,76.70
2019-05-20T16:44:14.604Z,76.97
2019-05-20T16:47:05.086Z,77.10
2019-05-20T16:49:48.298Z,77.22
2019-05-20T16:52:38.694Z,77.12
2019-05-20T16:55:22.035Z,77.36
2019-05-20T16:58:13.250Z,77.12
2019-05-20T17:00:56.192Z,77.43
2019-05-20T17:03:46.612Z,77.89
2019-05-20T17:06:29.932Z,77.52
2019-05-20T17:09:20.270Z,77.99
2019-05-20T17:12:03.144Z,78.18
2019-05-20T17:14:53.472Z,77.82
2019-05-20T17:17:36.744Z,77.72
2019-05-20T17:20:27.160Z,77.72
2019-05-20T17:23:10.247Z,77.60
2019-05-20T17:26:00.644Z,77.63
2019-05-20T17:28:44.071Z,76.62
2019-05-20T17:31:34.550Z,76.90
2019-05-20T17:34:19.651Z,77.05
2019-05-20T17:37:22.439Z,77.17
2019-05-20T17:40:15.205Z,77.16
2019-05-20T17:43:05.636Z,77.11
2019-05-20T17:45:48.878Z,77.48
2019-05-20T17:48:39.217Z,77.56
2019-05-20T17:51:22.547Z,77.92
2019-05-20T17:54:05.638Z,78.10
2019-05-20T17:56:56.031Z,78.09
2019-05-20T17:59:39.292Z,78.04
2019-05-20T18:02:29.707Z,78.18
2019-05-20T18:05:14.777Z,78.57
2019-05-20T18:08:04.867Z,78.78
2019-05-20T18:10:47.831Z,78.96
2019-05-20T18:13:38.341Z,79.29
2019-05-20T18:16:21.942Z,79.19
2019-05-20T18:19:12.419Z,79.22
2019-05-20T18:21:55.121Z,79.29
2019-05-20T18:24:45.579Z,79.60
2019-05-20T18:27:28.373Z,79.59
2019-05-20T18:33:54.663Z,79.72
2019-05-20T18:36:37.654Z,79.99
2019-05-20T18:39:20.284Z,80.40
2019-05-20T18:42:10.699Z,80.47
2019-05-20T18:44:53.869Z,80.56
2019-05-20T18:47:44.329Z,80.71
2019-05-20T18:50:27.939Z,80.80
2019-05-20T18:53:18.385Z,81.10
2019-05-20T18:56:01.750Z,80.73
2019-05-20T18:58:52.304Z,80.25
2019-05-20T19:01:55.752Z,80.33
2019-05-20T19:04:47.176Z,80.36
2019-05-20T19:07:37.599Z,79.73
2019-05-20T19:10:20.554Z,79.81
2019-05-20T19:13:10.931Z,79.67
2019-05-20T19:15:53.657Z,79.57
2019-05-20T19:18:44.098Z,79.44
2019-05-20T19:21:27.151Z,79.45
2019-05-20T19:24:17.704Z,79.46
2019-05-20T19:27:02.475Z,79.35
2019-05-20T19:29:52.868Z,79.09
2019-05-20T19:32:35.796Z,78.46
2019-05-20T19:35:26.191Z,78.64
2019-05-20T19:38:09.353Z,78.48
2019-05-20T19:40:59.725Z,78.32
2019-05-20T19:43:42.986Z,78.32
2019-05-20T19:46:33.359Z,77.96
2019-05-20T19:49:16.012Z,77.89
2019-05-20T19:52:06.377Z,77.85
2019-05-20T19:54:49.365Z,77.14
2019-05-20T19:57:39.830Z,77.19
2019-05-20T20:00:22.650Z,77.11
2019-05-20T20:03:13.134Z,77.30
2019-05-20T20:05:56.483Z,77.06
2019-05-20T20:08:46.958Z,77.29
2019-05-20T20:11:30.555Z,77.36
2019-05-20T20:14:20.981Z,77.32
2019-05-20T20:17:04.131Z,77.44
2019-05-20T20:19:58.103Z,77.52
2019-05-20T20:22:59.915Z,77.84
2019-05-20T20:25:50.520Z,77.97
2019-05-20T20:28:33.974Z,78.14
2019-05-20T20:31:24.378Z,79.15
2019-05-20T20:34:07.124Z,80.03
2019-05-20T20:36:50.185Z,80.91
2019-05-20T20:39:40.658Z,81.33
2019-05-20T20:42:23.849Z,81.98
2019-05-20T20:45:14.938Z,82.36
2019-05-20T20:47:58.017Z,82.43
2019-05-20T20:53:57.311Z,83.27
2019-05-20T20:56:47.732Z,83.28
2019-05-20T20:59:31.186Z,83.54
2019-05-20T21:02:21.581Z,83.99
2019-05-20T21:08:27.736Z,84.50
2019-05-20T21:11:10.699Z,85.06
2019-05-20T21:14:01.121Z,85.58
2019-05-20T21:16:43.928Z,85.99
2019-05-20T21:19:34.375Z,86.39
2019-05-20T21:22:16.976Z,86.49
2019-05-20T21:25:07.597Z,87.16
2019-05-20T21:27:50.134Z,87.08
2019-05-20T21:30:40.592Z,87.38
2019-05-20T21:33:23.755Z,87.70
2019-05-20T21:36:14.221Z,88.15
2019-05-20T21:38:57.128Z,88.57
2019-05-20T21:41:47.576Z,88.67
2019-05-20T21:44:30.690Z,88.60
2019-05-20T21:47:21.214Z,88.95
2019-05-20T21:50:04.483Z,89.27
2019-05-20T21:52:54.934Z,89.54
2019-05-20T21:55:38.776Z,90.10
2019-05-20T21:58:29.263Z,90.38
2019-05-20T22:01:12.861Z,90.40
2019-05-20T22:04:03.334Z,90.41
2019-05-20T22:06:53.164Z,90.77
2019-05-20T22:09:31.303Z,90.71
2019-05-20T22:12:21.719Z,91.30
2019-05-20T22:15:12.526Z,91.54
2019-05-20T22:18:02.975Z,91.74
2019-05-20T22:20:46.223Z,91.81
2019-05-20T22:26:43.235Z,91.95
2019-05-20T22:29:33.591Z,92.23
2019-05-20T22:32:16.612Z,92.32
2019-05-20T22:34:59.839Z,92.41
2019-05-20T22:37:50.353Z,92.63
2019-05-20T22:40:33.762Z,92.31
2019-05-20T22:43:25.159Z,92.46
2019-05-20T22:46:08.485Z,92.87
2019-05-20T22:48:58.970Z,92.76
2019-05-20T22:51:42.003Z,92.69
2019-05-20T22:54:32.443Z,92.95
2019-05-20T22:57:15.100Z,92.74
2019-05-20T23:00:05.541Z,92.74
2019-05-20T23:02:48.778Z,92.80
2019-05-20T23:05:39.128Z,92.62
2019-05-20T23:08:22.874Z,92.75
2019-05-20T23:11:13.203Z,92.69
2019-05-20T23:13:56.035Z,92.69
2019-05-20T23:16:46.394Z,92.30
2019-05-20T23:19:29.455Z,92.64
2019-05-20T23:22:19.896Z,93.51
2019-05-20T23:25:02.487Z,94.16
2019-05-20T23:27:52.920Z,95.09
2019-05-20T23:30:43.360Z,96.06
2019-05-20T23:33:26.653Z,96.87
2019-05-20T23:36:09.387Z,97.66
2019-05-20T23:39:19.706Z,98.62
2019-05-20T23:42:23.121Z,99.57
2019-05-20T23:45:13.851Z,100.00
2019-05-20T23:47:56.873Z,100.00
2019-05-20T23:50:47.309Z,100.00
2019-05-20T23:53:30.224Z,100.00
2019-05-20T23:56:20.662Z,100.00
2019-05-20T23:59:03.770Z,100.00
